Time;durP1;ratioP1;P1;durP2;ratioP2;P2;SDS_P1;SDS_P2;PMS_P1;PMS_P2;Temp;Humidity;BMP_temperature;BMP_pressure;BME280_temperature;BME280_humidity;BME280_pressure;Samples;Min_cycle;Max_cycle;Signal;HPM_P1;HPM_P2
2023/12/23 00:01:10;;;;;;;2.10;0.65;;;9.70;99.90;;;;;;4873167;29;20606;-65
2023/12/23 00:03:39;;;;;;;3.37;1.00;;;9.70;99.90;;;;;;4874945;29;20049;-62
2023/12/23 00:06:07;;;;;;;7.00;0.80;;;9.70;99.90;;;;;;4857407;29;20049;-61
2023/12/23 00:08:36;;;;;;;4.30;0.88;;;9.70;99.90;;;;;;4860602;29;20041;-62
2023/12/23 00:11:04;;;;;;;4.05;1.30;;;9.80;99.90;;;;;;4873300;29;20522;-62
2023/12/23 00:13:32;;;;;;;8.05;0.90;;;9.80;99.90;;;;;;4868927;29;20793;-62
2023/12/23 00:16:01;;;;;;;3.85;1.02;;;9.80;99.90;;;;;;4874723;29;20045;-62
2023/12/23 00:18:29;;;;;;;3.50;0.95;;;9.90;99.90;;;;;;4863073;29;20065;-60
2023/12/23 00:20:57;;;;;;;3.88;0.93;;;9.90;99.90;;;;;;4856578;29;20061;-61
2023/12/23 00:23:25;;;;;;;9.73;1.60;;;9.90;99.90;;;;;;4858879;29;20065;-62
2023/12/23 00:25:54;;;;;;;14.88;1.20;;;9.90;99.90;;;;;;4863684;29;20053;-60
2023/12/23 00:28:22;;;;;;;5.45;0.95;;;9.90;99.90;;;;;;4860409;29;20045;-60
2023/12/23 00:30:50;;;;;;;2.97;0.70;;;9.90;99.90;;;;;;4873488;29;20064;-62
2023/12/23 00:33:19;;;;;;;7.15;1.02;;;9.90;99.90;;;;;;4872487;29;20053;-63
2023/12/23 00:35:47;;;;;;;3.63;0.80;;;9.90;99.90;;;;;;4873006;29;20053;-62
2023/12/23 00:38:15;;;;;;;4.75;0.70;;;9.90;99.90;;;;;;4873109;29;20377;-66
2023/12/23 00:40:43;;;;;;;6.05;0.95;;;9.80;99.90;;;;;;4874568;29;20069;-63
2023/12/23 00:43:11;;;;;;;6.20;1.27;;;9.80;99.90;;;;;;4867296;29;20406;-62
2023/12/23 00:45:39;;;;;;;5.53;1.30;;;9.80;99.90;;;;;;4870753;29;20053;-61
2023/12/23 00:48:07;;;;;;;6.55;1.10;;;9.70;99.90;;;;;;4868499;29;20041;-62
2023/12/23 00:50:35;;;;;;;4.80;1.13;;;9.70;99.90;;;;;;4854801;29;20056;-62
2023/12/23 00:53:03;;;;;;;4.72;0.90;;;9.70;99.90;;;;;;4859215;29;20045;-62
2023/12/23 00:55:32;;;;;;;3.75;0.88;;;9.70;99.90;;;;;;4867095;29;20057;-63
2023/12/23 00:58:00;;;;;;;4.37;0.77;;;9.70;99.90;;;;;;4872064;29;20068;-62
2023/12/23 01:00:28;;;;;;;4.45;0.77;;;9.70;99.90;;;;;;4872600;29;20660;-64
2023/12/23 01:02:56;;;;;;;7.43;1.00;;;9.70;99.90;;;;;;4863058;29;20045;-65
2023/12/23 01:05:24;;;;;;;3.30;0.57;;;9.80;99.90;;;;;;4868718;29;20049;-62
2023/12/23 01:07:52;;;;;;;3.03;0.40;;;9.70;99.90;;;;;;4870819;29;20057;-66
2023/12/23 01:10:24;;;;;;;4.38;0.55;;;9.80;99.90;;;;;;4858676;29;20065;-63
2023/12/23 01:12:54;;;;;;;3.28;0.68;;;9.80;99.90;;;;;;4856226;29;20057;-63
2023/12/23 01:15:22;;;;;;;3.28;0.50;;;9.80;99.90;;;;;;4861866;29;20406;-62
2023/12/23 01:17:50;;;;;;;9.35;0.82;;;9.80;99.90;;;;;;4871128;29;20448;-64
2023/12/23 01:20:19;;;;;;;3.28;0.57;;;9.90;99.90;;;;;;4862448;29;20095;-64
2023/12/23 01:22:47;;;;;;;2.13;0.45;;;9.90;99.90;;;;;;4869572;29;20049;-62
2023/12/23 01:25:15;;;;;;;3.22;0.63;;;9.80;99.90;;;;;;4863305;29;20456;-62
2023/12/23 01:27:44;;;;;;;4.05;0.65;;;9.90;99.90;;;;;;4872297;29;20525;-63
2023/12/23 01:30:12;;;;;;;5.68;0.75;;;9.90;99.90;;;;;;4861587;29;20485;-62
2023/12/23 01:32:40;;;;;;;8.02;0.65;;;9.90;99.90;;;;;;4857014;29;20059;-61
2023/12/23 01:35:08;;;;;;;6.53;1.38;;;9.90;99.90;;;;;;4867223;29;20064;-63
2023/12/23 01:37:37;;;;;;;5.78;1.27;;;9.80;99.90;;;;;;4870209;29;20072;-60
2023/12/23 01:40:06;;;;;;;6.32;0.55;;;9.80;99.90;;;;;;4867810;29;20052;-62
2023/12/23 01:42:37;;;;;;;6.43;0.70;;;9.80;99.90;;;;;;4870843;29;20060;-62
2023/12/23 01:45:06;;;;;;;5.78;1.02;;;9.80;99.90;;;;;;4858200;29;20057;-61
2023/12/23 01:47:35;;;;;;;5.80;0.80;;;9.80;99.90;;;;;;4865611;29;20512;-61
2023/12/23 01:50:04;;;;;;;3.45;1.27;;;9.80;99.90;;;;;;4854397;29;20042;-62
2023/12/23 01:52:34;;;;;;;3.20;0.60;;;9.80;99.90;;;;;;4863270;29;20049;-63
2023/12/23 01:55:04;;;;;;;2.60;1.17;;;9.70;99.90;;;;;;4842184;29;20049;-62
2023/12/23 01:57:33;;;;;;;5.25;1.05;;;9.70;99.90;;;;;;4874689;29;20405;-60
2023/12/23 02:00:03;;;;;;;8.13;0.73;;;9.70;99.90;;;;;;4865317;29;20045;-62
2023/12/23 02:02:40;;;;;;;4.10;0.93;;;9.70;99.90;;;;;;4876649;29;20127;-62
2023/12/23 02:05:09;;;;;;;5.13;0.68;;;9.70;99.90;;;;;;4873523;29;20060;-62
2023/12/23 02:07:38;;;;;;;5.78;0.93;;;9.70;99.90;;;;;;4868274;29;20053;-62
2023/12/23 02:10:07;;;;;;;1.52;0.43;;;9.80;99.90;;;;;;4848010;29;20518;-62
2023/12/23 02:12:54;;;;;;;3.45;0.63;;;9.80;99.90;;;;;;4860604;29;20053;-62
2023/12/23 02:15:43;;;;;;;4.68;0.77;;;9.90;99.90;;;;;;4858420;29;20235;-61
2023/12/23 02:18:11;;;;;;;8.25;0.93;;;9.90;99.90;;;;;;4871434;29;20045;-63
2023/12/23 02:20:41;;;;;;;6.35;0.90;;;9.90;99.90;;;;;;4871843;29;20058;-61
2023/12/23 02:23:09;;;;;;;10.52;1.00;;;9.90;99.90;;;;;;4856258;29;20054;-62
2023/12/23 02:25:37;;;;;;;10.75;2.58;;;10.00;99.90;;;;;;4841966;29;20065;-62
2023/12/23 02:28:08;;;;;;;6.57;0.60;;;10.00;99.90;;;;;;4872192;29;20056;-62
2023/12/23 02:30:41;;;;;;;3.97;0.63;;;10.10;99.90;;;;;;4861540;29;20053;-61
2023/12/23 02:33:10;;;;;;;3.75;0.82;;;10.10;99.90;;;;;;4863438;29;20063;-62
2023/12/23 02:35:38;;;;;;;5.55;0.75;;;10.10;99.90;;;;;;4878399;29;20049;-62
2023/12/23 02:38:07;;;;;;;5.70;1.08;;;10.00;99.90;;;;;;4877242;29;20406;-62
2023/12/23 02:40:37;;;;;;;3.90;0.82;;;10.00;99.90;;;;;;4878257;29;20049;-60
2023/12/23 02:43:06;;;;;;;10.07;1.08;;;9.90;99.90;;;;;;4870146;29;20049;-61
2023/12/23 02:45:34;;;;;;;1.93;0.83;;;9.90;99.90;;;;;;4876446;29;20069;-64
2023/12/23 02:48:03;;;;;;;4.05;0.52;;;9.80;99.90;;;;;;4862004;29;20308;-63
2023/12/23 02:50:30;;;;;;;4.80;1.25;;;9.70;99.90;;;;;;4859049;29;20407;-61
2023/12/23 02:53:00;;;;;;;2.63;0.70;;;9.70;99.90;;;;;;4874840;29;20504;-62
2023/12/23 02:55:32;;;;;;;4.35;0.75;;;9.60;99.90;;;;;;4874191;29;20052;-62
2023/12/23 02:58:01;;;;;;;4.78;0.50;;;9.50;99.90;;;;;;4869205;29;20395;-61
2023/12/23 03:00:30;;;;;;;5.78;1.98;;;9.50;99.90;;;;;;4855841;29;20045;-61
2023/12/23 03:02:58;;;;;;;1.48;0.40;;;9.50;99.90;;;;;;4859488;29;20056;-60
2023/12/23 03:05:26;;;;;;;5.40;0.60;;;9.40;99.90;;;;;;4870948;29;20045;-63
2023/12/23 03:07:54;;;;;;;3.05;0.88;;;9.40;99.90;;;;;;4873282;29;20053;-63
2023/12/23 03:10:22;;;;;;;1.15;0.22;;;9.40;99.90;;;;;;4857395;29;20052;-63
2023/12/23 03:12:51;;;;;;;3.75;0.40;;;9.40;99.90;;;;;;4868750;29;20057;-61
2023/12/23 03:15:19;;;;;;;3.05;0.77;;;9.40;99.90;;;;;;4860347;29;20057;-63
2023/12/23 03:17:48;;;;;;;0.93;0.47;;;9.40;99.90;;;;;;4870475;29;20049;-66
2023/12/23 03:20:17;;;;;;;0.13;0.13;;;9.40;99.90;;;;;;4861897;29;20048;-62
2023/12/23 03:22:46;;;;;;;2.03;0.30;;;9.40;99.90;;;;;;4873772;29;20044;-68
2023/12/23 03:25:14;;;;;;;1.58;0.95;;;9.40;99.90;;;;;;4845142;29;20521;-65
2023/12/23 03:27:42;;;;;;;2.13;0.40;;;9.40;99.90;;;;;;4867099;29;20052;-60
2023/12/23 03:30:11;;;;;;;9.27;0.60;;;9.40;99.90;;;;;;4857010;29;20087;-66
2023/12/23 03:32:39;;;;;;;1.27;0.27;;;9.50;99.90;;;;;;4860337;29;20053;-62
2023/12/23 03:35:09;;;;;;;3.40;0.40;;;9.50;99.90;;;;;;4864982;29;20049;-68
2023/12/23 03:37:37;;;;;;;3.78;0.35;;;9.60;99.90;;;;;;4872671;29;20398;-66
2023/12/23 03:40:07;;;;;;;1.42;0.47;;;9.60;99.90;;;;;;4857255;29;20049;-65
2023/12/23 03:42:35;;;;;;;0.98;0.30;;;9.60;99.90;;;;;;4862816;29;20049;-64
2023/12/23 03:45:03;;;;;;;0.68;0.20;;;9.70;99.90;;;;;;4866867;29;20053;-61
2023/12/23 03:47:31;;;;;;;0.50;0.28;;;9.70;99.90;;;;;;4856744;29;20387;-62
2023/12/23 03:49:59;;;;;;;1.55;0.22;;;9.70;99.90;;;;;;4857254;29;20056;-62
2023/12/23 03:52:28;;;;;;;6.53;0.40;;;9.60;99.90;;;;;;4871930;29;20048;-63
2023/12/23 03:54:56;;;;;;;2.35;0.30;;;9.60;99.90;;;;;;4869145;29;20056;-62
2023/12/23 03:57:24;;;;;;;1.60;0.25;;;9.50;99.90;;;;;;4875057;29;20386;-62
2023/12/23 03:59:52;;;;;;;3.15;0.55;;;9.50;99.90;;;;;;4878563;29;20053;-64
2023/12/23 04:02:20;;;;;;;1.33;0.28;;;9.40;99.90;;;;;;4877005;29;20056;-63
2023/12/23 04:04:48;;;;;;;0.85;0.25;;;9.40;99.90;;;;;;4876087;29;20045;-63
2023/12/23 04:07:16;;;;;;;2.90;0.43;;;9.40;99.90;;;;;;4874937;29;20052;-59
2023/12/23 04:09:45;;;;;;;1.65;0.30;;;9.40;99.90;;;;;;4876953;29;20486;-60
2023/12/23 04:12:13;;;;;;;0.80;0.30;;;9.40;99.90;;;;;;4865715;29;20077;-61
2023/12/23 04:14:41;;;;;;;4.70;0.47;;;9.40;99.90;;;;;;4860924;29;20049;-60
2023/12/23 04:17:09;;;;;;;1.88;0.30;;;9.40;99.90;;;;;;4875523;29;20433;-60
2023/12/23 04:19:36;;;;;;;1.27;0.30;;;9.40;99.90;;;;;;4876104;29;20049;-61
2023/12/23 04:22:04;;;;;;;4.45;0.65;;;9.40;99.90;;;;;;4874714;29;20053;-60
2023/12/23 04:24:32;;;;;;;5.57;1.00;;;9.40;99.90;;;;;;4875636;29;20508;-63
2023/12/23 04:27:00;;;;;;;3.00;0.90;;;9.40;99.90;;;;;;4867456;29;20100;-60
2023/12/23 04:29:29;;;;;;;6.65;0.85;;;9.50;99.90;;;;;;4877164;29;20045;-65
2023/12/23 04:31:57;;;;;;;4.28;0.32;;;9.50;99.90;;;;;;4891973;29;20072;-62
2023/12/23 04:34:25;;;;;;;4.55;0.95;;;9.50;99.90;;;;;;4877527;29;20056;-68
2023/12/23 04:36:53;;;;;;;4.63;0.40;;;9.50;99.90;;;;;;4858079;29;20050;-63
2023/12/23 04:39:22;;;;;;;2.78;0.35;;;9.60;99.90;;;;;;4858133;29;20049;-63
2023/12/23 04:41:52;;;;;;;5.43;0.47;;;9.60;99.90;;;;;;4842549;29;20053;-61
2023/12/23 04:44:21;;;;;;;4.72;0.30;;;9.70;99.90;;;;;;4858155;29;20057;-61
2023/12/23 04:46:51;;;;;;;3.50;0.50;;;9.70;99.90;;;;;;4875211;29;20045;-67
2023/12/23 04:49:20;;;;;;;3.80;0.40;;;9.80;99.90;;;;;;4877681;29;20056;-64
2023/12/23 04:51:48;;;;;;;2.65;0.30;;;9.80;99.90;;;;;;4876603;29;20052;-63
2023/12/23 04:54:16;;;;;;;2.42;0.43;;;9.80;99.90;;;;;;4865335;29;20053;-63
2023/12/23 04:56:44;;;;;;;2.03;0.30;;;9.80;99.90;;;;;;4872402;29;20037;-66
2023/12/23 04:59:12;;;;;;;4.13;0.60;;;9.90;99.90;;;;;;4876479;29;20053;-64
2023/12/23 05:01:39;;;;;;;2.47;0.30;;;10.00;99.90;;;;;;4876269;29;20052;-64
2023/12/23 05:04:07;;;;;;;0.98;0.30;;;10.00;99.90;;;;;;4877744;29;20053;-64
2023/12/23 05:06:35;;;;;;;2.22;0.45;;;10.10;99.90;;;;;;4861082;29;20069;-64
2023/12/23 05:09:05;;;;;;;2.03;0.40;;;10.20;99.90;;;;;;4858126;29;20053;-64
2023/12/23 05:11:34;;;;;;;2.38;0.30;;;10.20;99.90;;;;;;4858963;29;20057;-63
2023/12/23 05:14:02;;;;;;;2.10;0.35;;;10.20;99.90;;;;;;4858975;29;20065;-64
2023/12/23 05:16:30;;;;;;;1.42;0.13;;;10.30;99.90;;;;;;4874401;29;20049;-64
2023/12/23 05:19:00;;;;;;;1.35;0.13;;;10.30;99.90;;;;;;4877540;29;20512;-66
2023/12/23 05:21:28;;;;;;;2.28;0.30;;;10.30;99.90;;;;;;4875030;29;20045;-61
2023/12/23 05:23:56;;;;;;;4.72;0.63;;;10.30;99.90;;;;;;4874611;29;20048;-65
2023/12/23 05:26:24;;;;;;;1.73;0.30;;;10.30;99.90;;;;;;4861436;29;20048;-64
2023/12/23 05:28:53;;;;;;;1.73;0.43;;;10.40;99.90;;;;;;4879464;29;20060;-63
2023/12/23 05:31:21;;;;;;;0.75;0.10;;;10.40;99.90;;;;;;4895355;29;20135;-63
2023/12/23 05:33:52;;;;;;;3.20;0.40;;;10.40;99.90;;;;;;4871715;29;20060;-64
2023/12/23 05:36:22;;;;;;;2.42;0.30;;;10.40;99.90;;;;;;4866717;29;20052;-64
2023/12/23 05:38:50;;;;;;;2.30;0.30;;;10.40;99.90;;;;;;4862321;29;20057;-66
2023/12/23 05:41:18;;;;;;;4.07;0.30;;;10.40;99.90;;;;;;4862249;29;20045;-64
2023/12/23 05:43:46;;;;;;;0.55;0.25;;;10.30;99.90;;;;;;4862316;29;20049;-62
2023/12/23 05:46:15;;;;;;;3.83;0.93;;;10.30;99.90;;;;;;4875391;29;20056;-63
2023/12/23 05:48:43;;;;;;;2.38;0.55;;;10.30;99.90;;;;;;4865222;29;20211;-64
2023/12/23 05:51:12;;;;;;;2.97;0.30;;;10.30;99.90;;;;;;4876296;29;20056;-62
2023/12/23 05:53:40;;;;;;;2.88;0.50;;;10.30;99.90;;;;;;4877424;29;20053;-64
2023/12/23 05:56:08;;;;;;;3.08;0.45;;;10.30;99.90;;;;;;4876667;29;20052;-62
2023/12/23 05:58:36;;;;;;;4.38;0.65;;;10.30;99.90;;;;;;4872807;29;20056;-63
2023/12/23 06:01:06;;;;;;;4.68;0.75;;;10.30;99.90;;;;;;4862441;29;20054;-62
2023/12/23 06:03:34;;;;;;;8.45;0.65;;;10.20;99.90;;;;;;4859092;29;20041;-63
2023/12/23 06:06:04;;;;;;;2.88;0.35;;;10.20;99.90;;;;;;4855445;29;20065;-61
2023/12/23 06:08:32;;;;;;;4.38;0.50;;;10.20;99.90;;;;;;4868022;29;20068;-61
2023/12/23 06:11:00;;;;;;;3.45;0.70;;;10.20;99.90;;;;;;4876666;29;20061;-64
2023/12/23 06:13:31;;;;;;;10.00;1.15;;;10.20;99.90;;;;;;4861171;29;20049;-64
2023/12/23 06:16:06;;;;;;;5.65;0.47;;;10.10;99.90;;;;;;4865994;29;20038;-61
2023/12/23 06:18:34;;;;;;;6.03;0.65;;;10.10;99.90;;;;;;4871895;29;20627;-61
2023/12/23 06:21:02;;;;;;;0.95;0.55;;;10.10;99.90;;;;;;4876300;29;20065;-61
2023/12/23 06:23:30;;;;;;;6.10;0.60;;;10.20;99.90;;;;;;4873020;29;20045;-61
2023/12/23 06:25:58;;;;;;;1.08;0.60;;;10.10;99.90;;;;;;4868476;29;20072;-61
2023/12/23 06:28:26;;;;;;;1.40;0.47;;;10.20;99.90;;;;;;4860670;29;20057;-61
2023/12/23 06:30:55;;;;;;;2.58;0.40;;;10.20;99.90;;;;;;4857255;29;20046;-61
2023/12/23 06:33:23;;;;;;;6.40;0.60;;;10.20;99.90;;;;;;4854346;29;20151;-62
2023/12/23 06:35:51;;;;;;;5.45;0.50;;;10.20;99.90;;;;;;4859191;29;20057;-61
2023/12/23 06:38:19;;;;;;;6.70;0.80;;;10.10;99.90;;;;;;4875725;29;20413;-61
2023/12/23 06:40:47;;;;;;;7.40;0.65;;;10.10;99.90;;;;;;4876772;29;20049;-61
2023/12/23 06:43:16;;;;;;;5.72;0.47;;;10.00;99.90;;;;;;4876343;29;20513;-60
2023/12/23 06:46:04;;;;;;;4.85;0.73;;;10.00;99.90;;;;;;4872975;29;20652;-61
2023/12/23 06:48:32;;;;;;;2.83;0.40;;;9.90;99.90;;;;;;4868755;29;20065;-61
2023/12/23 06:51:04;;;;;;;4.15;0.82;;;9.80;99.90;;;;;;4873355;29;20045;-63
2023/12/23 06:53:33;;;;;;;2.78;0.47;;;9.70;99.90;;;;;;4875428;29;20580;-60
2023/12/23 06:56:08;;;;;;;2.00;0.30;;;9.60;99.90;;;;;;4873009;29;20200;-59
2023/12/23 06:58:36;;;;;;;1.83;0.30;;;9.50;99.90;;;;;;4865257;29;20072;-61
2023/12/23 07:01:04;;;;;;;9.75;0.50;;;9.50;99.90;;;;;;4854224;29;20084;-60
2023/12/23 07:03:32;;;;;;;2.40;0.50;;;9.50;99.90;;;;;;4854221;29;20054;-60
2023/12/23 07:06:00;;;;;;;1.63;0.40;;;9.40;99.90;;;;;;4853269;29;20057;-60
2023/12/23 07:08:28;;;;;;;0.60;0.20;;;9.30;99.90;;;;;;4867783;29;20061;-60
2023/12/23 07:10:57;;;;;;;2.83;0.30;;;9.30;99.90;;;;;;4857977;29;20049;-60
2023/12/23 07:13:25;;;;;;;2.90;0.40;;;9.20;99.90;;;;;;4868756;29;20064;-60
2023/12/23 07:15:53;;;;;;;3.03;0.22;;;9.20;99.90;;;;;;4875994;29;20053;-61
2023/12/23 07:18:21;;;;;;;5.05;0.45;;;9.20;99.90;;;;;;4875757;29;20045;-60
2023/12/23 07:20:51;;;;;;;4.15;0.35;;;9.10;99.90;;;;;;4869085;29;20045;-61
2023/12/23 07:23:19;;;;;;;5.57;0.60;;;9.10;99.90;;;;;;4862671;29;20065;-60
2023/12/23 07:25:47;;;;;;;3.20;0.47;;;9.10;99.90;;;;;;4857842;29;20057;-63
2023/12/23 07:28:14;;;;;;;2.15;0.25;;;9.10;99.90;;;;;;4869531;29;20064;-61
2023/12/23 07:30:44;;;;;;;2.10;0.20;;;9.10;99.90;;;;;;4861758;29;20064;-61
2023/12/23 07:33:13;;;;;;;6.55;0.32;;;9.10;99.90;;;;;;4866960;29;20425;-64
2023/12/23 07:35:42;;;;;;;0.08;0.08;;;9.10;99.90;;;;;;4862556;29;20403;-63
2023/12/23 07:38:10;;;;;;;1.65;0.43;;;9.10;99.90;;;;;;4867285;29;20061;-62
2023/12/23 07:40:38;;;;;;;3.22;0.40;;;9.10;99.90;;;;;;4857189;29;20048;-65
2023/12/23 07:43:07;;;;;;;1.75;0.30;;;9.10;99.90;;;;;;4865473;29;20116;-62
2023/12/23 07:45:37;;;;;;;0.98;0.20;;;9.10;99.90;;;;;;4872505;29;20048;-59
2023/12/23 07:48:05;;;;;;;0.28;0.20;;;9.10;99.90;;;;;;4871429;29;20065;-62
2023/12/23 07:50:33;;;;;;;2.95;0.30;;;9.10;99.90;;;;;;4871477;29;20056;-61
2023/12/23 07:53:01;;;;;;;2.42;0.25;;;9.10;99.90;;;;;;4870622;29;20057;-62
2023/12/23 07:55:29;;;;;;;0.90;0.32;;;9.10;99.90;;;;;;4867345;29;20505;-62
2023/12/23 07:57:59;;;;;;;2.35;0.43;;;9.10;99.90;;;;;;4860208;29;20497;-62
2023/12/23 08:00:27;;;;;;;0.70;0.30;;;9.10;99.90;;;;;;4856046;29;20076;-61
2023/12/23 08:02:56;;;;;;;1.20;0.30;;;9.10;99.90;;;;;;4864258;29;20045;-62
2023/12/23 08:05:24;;;;;;;6.10;0.50;;;9.10;99.90;;;;;;4853486;29;20068;-61
2023/12/23 08:07:52;;;;;;;2.08;0.43;;;9.10;99.90;;;;;;4860535;29;20048;-62
2023/12/23 08:10:20;;;;;;;5.57;0.40;;;9.10;99.90;;;;;;4872349;29;20644;-62
2023/12/23 08:12:48;;;;;;;2.22;0.57;;;9.10;99.90;;;;;;4858147;29;20394;-61
2023/12/23 08:15:16;;;;;;;2.15;0.40;;;9.10;99.90;;;;;;4870975;29;20049;-61
2023/12/23 08:17:44;;;;;;;2.78;0.20;;;9.10;99.90;;;;;;4868261;29;20071;-62
2023/12/23 08:20:12;;;;;;;0.95;0.30;;;9.10;99.90;;;;;;4857888;29;20065;-62
2023/12/23 08:22:41;;;;;;;7.88;1.08;;;9.20;99.90;;;;;;4861053;29;20060;-62
2023/12/23 08:25:09;;;;;;;3.03;0.20;;;9.20;99.90;;;;;;4858750;29;20049;-61
2023/12/23 08:27:38;;;;;;;0.30;0.30;;;9.20;99.90;;;;;;4858686;29;20053;-62
2023/12/23 08:30:07;;;;;;;5.15;0.52;;;9.20;99.90;;;;;;4868144;29;20053;-62
2023/12/23 08:32:35;;;;;;;0.57;0.20;;;9.20;99.90;;;;;;4868437;29;20049;-62
2023/12/23 08:35:03;;;;;;;0.65;0.20;;;9.30;99.90;;;;;;4856069;29;20061;-64
2023/12/23 08:37:31;;;;;;;3.92;0.20;;;9.30;99.90;;;;;;4857401;29;20053;-62
2023/12/23 08:39:59;;;;;;;3.22;0.50;;;9.30;99.90;;;;;;4874404;29;20049;-62
2023/12/23 08:42:30;;;;;;;2.58;0.35;;;9.30;99.90;;;;;;4862192;29;20064;-62
2023/12/23 08:44:58;;;;;;;0.60;0.20;;;9.40;99.90;;;;;;4864632;29;20054;-64
2023/12/23 08:47:26;;;;;;;0.73;0.30;;;9.40;99.90;;;;;;4839193;29;20057;-65
2023/12/23 08:49:54;;;;;;;0.70;0.28;;;9.40;99.90;;;;;;4856519;29;20053;-62
2023/12/23 08:52:22;;;;;;;0.77;0.35;;;9.40;99.90;;;;;;4860214;29;20052;-65
2023/12/23 08:54:50;;;;;;;0.63;0.20;;;9.50;99.90;;;;;;4867388;29;20049;-64
2023/12/23 08:57:18;;;;;;;2.75;0.35;;;9.50;99.90;;;;;;4868623;29;20045;-63
2023/12/23 08:59:46;;;;;;;1.85;0.22;;;9.50;99.90;;;;;;4864665;29;20061;-62
2023/12/23 09:02:13;;;;;;;0.95;0.47;;;9.50;99.90;;;;;;4859364;29;20068;-63
2023/12/23 09:04:42;;;;;;;3.83;0.68;;;9.50;99.90;;;;;;4876634;29;20049;-64
2023/12/23 09:07:10;;;;;;;3.55;0.43;;;9.50;99.90;;;;;;4867401;29;20057;-60
2023/12/23 09:09:42;;;;;;;2.17;0.28;;;9.50;99.90;;;;;;4867547;29;20045;-61
2023/12/23 09:12:11;;;;;;;3.33;0.30;;;9.50;99.90;;;;;;4860695;29;20060;-61
2023/12/23 09:14:39;;;;;;;1.27;0.28;;;9.50;99.90;;;;;;4875687;29;20490;-63
2023/12/23 09:17:07;;;;;;;1.77;0.93;;;9.50;99.90;;;;;;4877196;29;20520;-61
2023/12/23 09:19:36;;;;;;;1.98;0.70;;;9.60;99.90;;;;;;4862690;29;20061;-61
2023/12/23 09:22:04;;;;;;;5.80;0.90;;;9.60;99.90;;;;;;4862827;29;20061;-60
2023/12/23 09:24:33;;;;;;;2.55;0.60;;;9.60;99.90;;;;;;4877219;29;20061;-62
2023/12/23 09:27:01;;;;;;;3.92;0.63;;;9.60;99.90;;;;;;4866974;29;20056;-62
2023/12/23 09:29:29;;;;;;;1.13;0.30;;;9.60;99.90;;;;;;4866167;29;20483;-61
2023/12/23 09:31:56;;;;;;;1.63;0.20;;;9.60;99.90;;;;;;4870658;29;20052;-61
2023/12/23 09:34:24;;;;;;;1.05;0.10;;;9.60;99.90;;;;;;4873230;29;20069;-62
2023/12/23 09:36:52;;;;;;;2.63;0.50;;;9.60;99.90;;;;;;4875074;29;20049;-62
2023/12/23 09:39:20;;;;;;;3.17;0.63;;;9.60;99.90;;;;;;4877544;29;20044;-61
2023/12/23 09:41:48;;;;;;;3.88;0.65;;;9.60;99.90;;;;;;4863510;29;20406;-63
2023/12/23 09:44:16;;;;;;;2.60;0.45;;;9.60;99.90;;;;;;4862571;29;20045;-61
2023/12/23 09:46:45;;;;;;;1.88;0.40;;;9.60;99.90;;;;;;4858749;29;20042;-62
2023/12/23 09:49:13;;;;;;;2.17;0.60;;;9.60;99.90;;;;;;4875569;29;20049;-62
2023/12/23 09:51:44;;;;;;;2.15;0.77;;;9.60;99.90;;;;;;4870105;29;20045;-62
2023/12/23 09:54:19;;;;;;;1.90;1.00;;;9.60;99.90;;;;;;4858829;29;20045;-64
2023/12/23 09:56:48;;;;;;;3.22;0.50;;;9.60;99.90;;;;;;4866015;29;20513;-62
2023/12/23 09:59:16;;;;;;;2.37;0.60;;;9.60;99.90;;;;;;4868630;29;20056;-62
2023/12/23 10:01:44;;;;;;;1.80;0.50;;;9.60;99.90;;;;;;4865866;29;20480;-62
2023/12/23 10:04:12;;;;;;;1.02;0.50;;;9.60;99.90;;;;;;4877038;29;20056;-61
2023/12/23 10:06:40;;;;;;;1.05;0.30;;;9.60;99.90;;;;;;4877016;29;20069;-62
2023/12/23 10:09:10;;;;;;;0.73;0.30;;;9.70;99.90;;;;;;4876785;29;20060;-61
2023/12/23 10:11:39;;;;;;;1.25;0.40;;;9.70;99.90;;;;;;4868950;29;20418;-61
2023/12/23 10:14:07;;;;;;;0.95;0.20;;;9.70;99.90;;;;;;4868997;29;20052;-62
2023/12/23 10:16:35;;;;;;;1.20;0.28;;;9.70;99.90;;;;;;4875225;29;20045;-61
2023/12/23 10:19:09;;;;;;;2.85;0.40;;;9.80;99.90;;;;;;4872953;29;20060;-62
2023/12/23 10:21:37;;;;;;;1.93;0.47;;;9.70;99.90;;;;;;4870037;29;20069;-62
2023/12/23 10:24:06;;;;;;;2.13;0.82;;;9.70;99.90;;;;;;4864746;29;20061;-62
2023/12/23 10:26:34;;;;;;;0.93;0.43;;;9.80;99.90;;;;;;4860818;29;20042;-64
2023/12/23 10:29:04;;;;;;;0.93;0.40;;;9.80;99.90;;;;;;4859675;29;20060;-63
2023/12/23 10:31:35;;;;;;;2.00;0.60;;;9.90;99.90;;;;;;4865324;29;20496;-62
2023/12/23 10:34:08;;;;;;;2.35;0.30;;;9.90;99.90;;;;;;4874954;29;20056;-66
2023/12/23 10:36:38;;;;;;;2.38;0.30;;;9.90;99.90;;;;;;4874738;29;20057;-63
2023/12/23 10:39:15;;;;;;;2.38;0.30;;;10.00;99.90;;;;;;4861805;29;20422;-61
2023/12/23 10:41:54;;;;;;;2.92;0.50;;;10.00;99.90;;;;;;4864590;29;20056;-64
2023/12/23 10:44:26;;;;;;;3.53;0.35;;;10.10;99.90;;;;;;4856871;29;20038;-69
2023/12/23 10:46:55;;;;;;;0.85;0.20;;;10.20;99.90;;;;;;4861346;29;20083;-65
2023/12/23 10:49:27;;;;;;;2.72;0.55;;;10.20;99.90;;;;;;4863573;29;20048;-68
2023/12/23 10:52:17;;;;;;;1.13;0.30;;;10.30;99.90;;;;;;4868179;29;20409;-68
2023/12/23 10:54:45;;;;;;;3.45;0.32;;;10.40;99.90;;;;;;4859738;29;20060;-69
2023/12/23 10:57:15;;;;;;;2.47;0.30;;;10.50;99.90;;;;;;4857181;29;20402;-66
2023/12/23 11:00:05;;;;;;;0.93;0.43;;;10.50;99.90;;;;;;4859700;29;20069;-68
2023/12/23 11:02:35;;;;;;;1.17;0.20;;;10.60;99.90;;;;;;4878771;29;20049;-66
2023/12/23 11:05:07;;;;;;;4.93;0.47;;;10.60;99.90;;;;;;4872013;29;20053;-66
2023/12/23 11:07:57;;;;;;;7.85;0.55;;;10.50;99.90;;;;;;4875413;29;20068;-64
2023/12/23 11:10:38;;;;;;;1.33;0.30;;;10.50;99.90;;;;;;4870858;29;20392;-64
2023/12/23 11:13:07;;;;;;;3.83;0.30;;;10.50;99.90;;;;;;4872987;29;20065;-68
2023/12/23 11:15:55;;;;;;;1.88;0.30;;;10.40;99.90;;;;;;4856975;29;20052;-64
2023/12/23 11:18:23;;;;;;;2.08;0.40;;;10.40;99.90;;;;;;4865280;29;20056;-68
2023/12/23 11:20:54;;;;;;;0.63;0.20;;;10.50;99.90;;;;;;4858761;29;20404;-66
2023/12/23 11:23:32;;;;;;;1.83;0.30;;;10.50;99.90;;;;;;4863236;29;20046;-68
2023/12/23 11:26:01;;;;;;;4.68;0.85;;;10.50;99.90;;;;;;4865752;29;20426;-69
2023/12/23 11:28:32;;;;;;;4.25;0.52;;;10.50;99.90;;;;;;4869835;29;20059;-67
2023/12/23 11:31:00;;;;;;;0.57;0.30;;;10.60;99.90;;;;;;4856107;29;20506;-68
2023/12/23 11:33:36;;;;;;;2.97;0.45;;;10.60;99.90;;;;;;4870934;29;20060;-65
2023/12/23 11:36:05;;;;;;;2.60;0.20;;;10.70;99.90;;;;;;4873270;29;20064;-67
2023/12/23 11:38:52;;;;;;;0.20;0.10;;;10.70;99.90;;;;;;4871145;29;20052;-68
2023/12/23 11:41:21;;;;;;;1.45;0.25;;;10.60;99.90;;;;;;4860157;29;20045;-62
2023/12/23 11:43:50;;;;;;;3.03;0.20;;;10.60;99.90;;;;;;4863483;29;20061;-61
2023/12/23 11:46:22;;;;;;;1.85;0.40;;;10.70;99.90;;;;;;4871464;29;20303;-62
2023/12/23 11:48:50;;;;;;;1.02;0.15;;;10.60;99.90;;;;;;4875174;29;20060;-63
2023/12/23 11:51:19;;;;;;;0.52;0.20;;;10.60;99.90;;;;;;4872536;29;20053;-62
2023/12/23 11:53:47;;;;;;;0.95;0.28;;;10.70;99.90;;;;;;4856400;29;20061;-62
2023/12/23 11:56:16;;;;;;;4.15;0.30;;;10.70;99.90;;;;;;4855469;29;20068;-61
2023/12/23 11:58:45;;;;;;;1.73;0.40;;;10.70;99.90;;;;;;4865387;29;20052;-62
2023/12/23 12:01:14;;;;;;;0.77;0.20;;;10.80;99.90;;;;;;4869472;29;20052;-61
2023/12/23 12:03:42;;;;;;;1.55;0.20;;;10.90;99.90;;;;;;4864017;29;20045;-62
2023/12/23 12:06:10;;;;;;;1.98;0.25;;;10.90;99.90;;;;;;4874951;29;20072;-62
2023/12/23 12:08:39;;;;;;;3.17;0.30;;;11.00;99.90;;;;;;4856970;29;20049;-62
2023/12/23 12:11:07;;;;;;;0.90;0.20;;;11.00;99.90;;;;;;4856597;29;20058;-62
2023/12/23 12:13:36;;;;;;;1.77;0.10;;;11.00;99.90;;;;;;4854522;29;20050;-61
2023/12/23 12:16:05;;;;;;;2.10;0.30;;;11.00;99.90;;;;;;4859844;29;20048;-61
2023/12/23 12:18:33;;;;;;;2.07;0.20;;;11.10;99.90;;;;;;4874732;29;20052;-61
2023/12/23 12:21:01;;;;;;;0.73;0.20;;;11.10;99.90;;;;;;4874603;29;20421;-63
2023/12/23 12:23:29;;;;;;;3.17;0.25;;;11.10;99.90;;;;;;4864488;29;20048;-62
2023/12/23 12:25:58;;;;;;;1.63;0.20;;;11.20;99.90;;;;;;4874876;29;20064;-68
2023/12/23 12:28:27;;;;;;;0.25;0.05;;;11.20;99.90;;;;;;4873720;29;20517;-68
2023/12/23 12:31:06;;;;;;;2.58;0.10;;;11.20;99.90;;;;;;4855919;29;20053;-63
2023/12/23 12:33:35;;;;;;;2.53;0.40;;;11.20;99.90;;;;;;4866801;29;20056;-65
2023/12/23 12:36:04;;;;;;;1.10;0.10;;;11.20;99.90;;;;;;4870990;29;20052;-68
2023/12/23 12:38:32;;;;;;;0.45;0.20;;;11.30;99.90;;;;;;4873214;29;20297;-67
2023/12/23 12:41:01;;;;;;;2.47;0.20;;;11.20;99.90;;;;;;4874247;29;20506;-67
2023/12/23 12:43:31;;;;;;;0.63;0.20;;;11.20;99.90;;;;;;4866100;29;20052;-66
2023/12/23 12:46:01;;;;;;;1.25;0.20;;;11.20;99.90;;;;;;4856909;29;20541;-63
2023/12/23 12:48:29;;;;;;;2.15;0.52;;;11.20;99.90;;;;;;4864235;29;20805;-61
2023/12/23 12:50:57;;;;;;;1.35;0.20;;;11.30;99.90;;;;;;4874021;29;20057;-61
2023/12/23 12:53:27;;;;;;;0.88;0.20;;;11.40;99.90;;;;;;4869732;29;20056;-62
2023/12/23 12:56:07;;;;;;;2.40;0.28;;;11.50;99.90;;;;;;4872720;29;20509;-62
2023/12/23 12:58:38;;;;;;;0.10;0.10;;;11.60;99.90;;;;;;4874512;29;20155;-62
2023/12/23 13:01:06;;;;;;;1.15;0.17;;;11.80;99.90;;;;;;4857416;29;20065;-62
2023/12/23 13:03:36;;;;;;;1.75;0.73;;;12.00;99.90;;;;;;4862194;29;20045;-61